createdAt,value
2022-12-31T00:00:07.850Z,1000.25
2022-12-31T00:00:17.195Z,1000.31
2022-12-31T00:00:26.561Z,1000.35
2022-12-31T00:00:35.964Z,1000.35
2022-12-31T00:00:54.736Z,1000.22
2022-12-31T00:01:04.169Z,1000.46
2022-12-31T00:01:13.559Z,1000.52
2022-12-31T00:01:22.986Z,1000.41
2022-12-31T00:01:32.375Z,1000.37
2022-12-31T00:01:41.784Z,1000.40
2022-12-31T00:01:51.258Z,1000.29
2022-12-31T00:02:00.796Z,1000.36
2022-12-31T00:02:10.164Z,1000.27
2022-12-31T00:02:19.546Z,1000.41
2022-12-31T00:02:29.081Z,1000.26
2022-12-31T00:02:38.371Z,1000.38
2022-12-31T00:02:47.902Z,1000.41
2022-12-31T00:02:57.317Z,1000.27
2022-12-31T00:03:06.750Z,1000.33
2022-12-31T00:03:16.188Z,1000.33
2022-12-31T00:03:34.851Z,1000.40
2022-12-31T00:03:44.221Z,1000.31
2022-12-31T00:03:53.648Z,1000.31
2022-12-31T00:04:03.049Z,1000.11
2022-12-31T00:04:12.432Z,1000.27
2022-12-31T00:04:21.854Z,1000.21
2022-12-31T00:04:31.300Z,1000.23
2022-12-31T00:04:40.706Z,1000.29
2022-12-31T00:04:50.112Z,1000.33
2022-12-31T00:04:59.539Z,1000.27
2022-12-31T00:05:08.963Z,1000.24
2022-12-31T00:05:18.365Z,1000.33
2022-12-31T00:05:27.890Z,1000.33
2022-12-31T00:05:37.264Z,1000.31
2022-12-31T00:05:46.769Z,1000.25
2022-12-31T00:05:56.241Z,1000.43
2022-12-31T00:06:05.709Z,1000.41
2022-12-31T00:06:24.663Z,1000.43
2022-12-31T00:06:34.053Z,1000.25
2022-12-31T00:06:43.434Z,1000.21
2022-12-31T00:06:52.836Z,1000.29
2022-12-31T00:07:02.254Z,1000.25
2022-12-31T00:07:11.663Z,1000.16
2022-12-31T00:07:21.098Z,1000.25
2022-12-31T00:08:02.641Z,1000.10
2022-12-31T00:08:12.024Z,1000.24
2022-12-31T00:08:21.471Z,1000.17
2022-12-31T00:08:30.884Z,1000.29
2022-12-31T00:08:40.317Z,1000.19
2022-12-31T00:08:49.726Z,1000.26
2022-12-31T00:08:59.136Z,1000.33
2022-12-31T00:09:08.560Z,1000.15
2022-12-31T00:09:17.982Z,1000.28
2022-12-31T00:09:27.387Z,1000.25
2022-12-31T00:09:36.825Z,1000.27
2022-12-31T00:09:46.265Z,1000.29
2022-12-31T00:09:58.214Z,1000.32
2022-12-31T00:10:07.643Z,1000.44
2022-12-31T00:10:17.055Z,1000.28
2022-12-31T00:10:26.475Z,1000.35
2022-12-31T00:10:35.936Z,1000.34
2022-12-31T00:10:45.385Z,1000.33
2022-12-31T00:10:54.819Z,1000.37
2022-12-31T00:11:04.260Z,1000.38
2022-12-31T00:11:13.679Z,1000.37
2022-12-31T00:11:23.088Z,1000.32
2022-12-31T00:11:32.593Z,1000.35
2022-12-31T00:11:41.995Z,1000.41
2022-12-31T00:11:51.486Z,1000.44
2022-12-31T00:12:00.909Z,1000.50
2022-12-31T00:12:10.318Z,1000.37
2022-12-31T00:12:19.762Z,1000.35
2022-12-31T00:12:29.200Z,1000.40
2022-12-31T00:12:38.642Z,1000.44
2022-12-31T00:12:48.048Z,1000.34
2022-12-31T00:12:57.480Z,1000.35
2022-12-31T00:13:06.859Z,1000.50
2022-12-31T00:13:16.278Z,1000.35
2022-12-31T00:13:25.694Z,1000.42
2022-12-31T00:13:35.158Z,1000.44
2022-12-31T00:13:44.694Z,1000.43
2022-12-31T00:13:54.133Z,1000.43
2022-12-31T00:14:03.555Z,1000.40
2022-12-31T00:14:12.978Z,1000.42
2022-12-31T00:14:22.404Z,1000.47
2022-12-31T00:14:31.839Z,1000.39
2022-12-31T00:14:41.241Z,1000.35
2022-12-31T00:14:50.651Z,1000.40
2022-12-31T00:15:00.100Z,1000.41
2022-12-31T00:15:09.504Z,1000.47
2022-12-31T00:15:18.898Z,1000.36
2022-12-31T00:15:28.311Z,1000.35
2022-12-31T00:15:37.699Z,1000.36
2022-12-31T00:15:47.109Z,1000.36
2022-12-31T00:15:56.515Z,1000.41
2022-12-31T00:16:11.742Z,1000.35
2022-12-31T00:16:15.312Z,1000.40
2022-12-31T00:16:24.725Z,1000.36
2022-12-31T00:16:34.189Z,1000.34
2022-12-31T00:16:43.577Z,1000.42
2022-12-31T00:16:54.313Z,1000.35
2022-12-31T00:17:03.762Z,1000.46
2022-12-31T00:17:13.221Z,1000.39
2022-12-31T00:17:22.528Z,1000.33
2022-12-31T00:17:31.939Z,1000.34
2022-12-31T00:17:41.419Z,1000.26
2022-12-31T00:17:50.860Z,1000.34
2022-12-31T00:18:00.240Z,1000.39
2022-12-31T00:18:09.647Z,1000.34
2022-12-31T00:18:19.057Z,1000.38
2022-12-31T00:18:28.473Z,1000.37
2022-12-31T00:18:37.857Z,1000.37
2022-12-31T00:18:47.266Z,1000.33
2022-12-31T00:18:56.681Z,1000.34
2022-12-31T00:19:06.105Z,1000.37
2022-12-31T00:19:15.467Z,1000.40
2022-12-31T00:19:24.850Z,1000.34
2022-12-31T00:19:34.271Z,1000.43
2022-12-31T00:19:43.673Z,1000.35
2022-12-31T00:19:53.070Z,1000.41
2022-12-31T00:20:02.798Z,1000.37
2022-12-31T00:20:12.203Z,1000.33
2022-12-31T00:20:21.615Z,1000.39
2022-12-31T00:20:31.032Z,1000.46
2022-12-31T00:20:40.458Z,1000.46
2022-12-31T00:20:49.865Z,1000.43
2022-12-31T00:20:59.250Z,1000.37
2022-12-31T00:21:08.676Z,1000.37
2022-12-31T00:21:18.091Z,1000.43
2022-12-31T00:21:27.498Z,1000.46
2022-12-31T00:21:36.934Z,1000.52
2022-12-31T00:21:46.402Z,1000.39
2022-12-31T00:21:55.790Z,1000.46
2022-12-31T00:22:05.184Z,1000.65
2022-12-31T00:22:14.637Z,1000.42
2022-12-31T00:22:24.033Z,1000.57
2022-12-31T00:22:33.444Z,1000.63
2022-12-31T00:22:42.866Z,1000.49
2022-12-31T00:23:01.783Z,1000.57
2022-12-31T00:23:11.122Z,1000.47
2022-12-31T00:23:20.530Z,1000.32
2022-12-31T00:23:30.013Z,1000.30
2022-12-31T00:23:39.433Z,1000.37
2022-12-31T00:23:48.878Z,1000.32
2022-12-31T00:23:58.305Z,1000.47
2022-12-31T00:24:07.698Z,1000.31
2022-12-31T00:24:17.133Z,1000.59
2022-12-31T00:24:26.563Z,1000.45
2022-12-31T00:24:36.038Z,1000.41
2022-12-31T00:24:45.359Z,1000.40
2022-12-31T00:24:54.781Z,1000.42
2022-12-31T00:25:04.240Z,1000.43
2022-12-31T00:25:13.673Z,1000.49
2022-12-31T00:25:23.049Z,1000.57
2022-12-31T00:25:41.877Z,1000.50
2022-12-31T00:25:51.312Z,1000.59
2022-12-31T00:26:00.709Z,1000.47
2022-12-31T00:26:10.105Z,1000.49
2022-12-31T00:26:19.529Z,1000.57
2022-12-31T00:26:28.927Z,1000.60
2022-12-31T00:26:38.425Z,1000.51
2022-12-31T00:26:47.812Z,1000.64
2022-12-31T00:26:57.212Z,1000.70
2022-12-31T00:27:06.677Z,1000.61
2022-12-31T00:27:16.098Z,1000.61
2022-12-31T00:27:25.495Z,1000.54
2022-12-31T00:27:34.973Z,1000.67
2022-12-31T00:27:44.383Z,1000.69
2022-12-31T00:27:53.758Z,1000.69
2022-12-31T00:28:03.191Z,1000.68
2022-12-31T00:28:21.971Z,1000.63
2022-12-31T00:28:31.398Z,1000.60
2022-12-31T00:28:40.836Z,1000.62
2022-12-31T00:28:50.202Z,1000.73
2022-12-31T00:28:59.669Z,1000.72
2022-12-31T00:29:09.080Z,1000.65
2022-12-31T00:29:18.474Z,1000.64
2022-12-31T00:29:27.875Z,1000.61
2022-12-31T00:29:37.301Z,1000.57
2022-12-31T00:29:46.758Z,1000.56
2022-12-31T00:29:59.528Z,1000.54
2022-12-31T00:30:05.606Z,1000.54
2022-12-31T00:30:15.055Z,1000.57
2022-12-31T00:30:24.482Z,1000.57
2022-12-31T00:30:33.908Z,1000.46
2022-12-31T00:30:43.318Z,1000.49
2022-12-31T00:30:52.734Z,1000.49
2022-12-31T00:31:11.626Z,1000.40
2022-12-31T00:31:21.089Z,1000.45
2022-12-31T00:31:30.450Z,1000.44
2022-12-31T00:31:39.883Z,1000.36
2022-12-31T00:31:49.296Z,1000.31
2022-12-31T00:31:58.795Z,1000.38
2022-12-31T00:32:08.197Z,1000.39
2022-12-31T00:32:17.598Z,1000.39
2022-12-31T00:32:27.018Z,1000.41
2022-12-31T00:32:36.402Z,1000.36
2022-12-31T00:32:45.799Z,1000.30
2022-12-31T00:32:55.188Z,1000.32
2022-12-31T00:33:04.611Z,1000.43
2022-12-31T00:33:13.995Z,1000.55
2022-12-31T00:33:23.401Z,1000.66
2022-12-31T00:33:32.795Z,1000.34
2022-12-31T00:33:52.155Z,1000.53
2022-12-31T00:34:01.714Z,1000.48
2022-12-31T00:34:14.158Z,1000.48
2022-12-31T00:34:23.540Z,1000.54
2022-12-31T00:34:32.940Z,1000.60
2022-12-31T00:34:42.338Z,1000.62
2022-12-31T00:34:51.751Z,1000.44
2022-12-31T00:35:01.170Z,1000.60
2022-12-31T00:35:10.759Z,1000.49
2022-12-31T00:35:20.185Z,1000.57
2022-12-31T00:35:29.566Z,1000.58
2022-12-31T00:35:38.974Z,1000.47
2022-12-31T00:35:48.372Z,1000.48
2022-12-31T00:35:57.766Z,1000.58
2022-12-31T00:36:07.203Z,1000.63
2022-12-31T00:36:16.603Z,1000.61
2022-12-31T00:36:25.976Z,1000.56
2022-12-31T00:36:35.370Z,1000.64
2022-12-31T00:36:44.792Z,1000.60
2022-12-31T00:36:54.191Z,1000.59
2022-12-31T00:37:03.618Z,1000.64
2022-12-31T00:37:13.024Z,1000.57
2022-12-31T00:37:31.865Z,1000.64
2022-12-31T00:37:41.375Z,1000.58
2022-12-31T00:37:50.788Z,1000.63
2022-12-31T00:38:00.242Z,1000.66
2022-12-31T00:38:09.658Z,1000.67
2022-12-31T00:38:19.060Z,1000.65
2022-12-31T00:38:28.493Z,1000.71
2022-12-31T00:38:37.913Z,1000.71
2022-12-31T00:38:47.352Z,1000.73
2022-12-31T00:38:56.763Z,1000.72
2022-12-31T00:39:06.183Z,1000.68
2022-12-31T00:39:15.615Z,1000.73
2022-12-31T00:39:25.010Z,1000.66
2022-12-31T00:39:34.433Z,1000.68
2022-12-31T00:39:43.805Z,1000.72
2022-12-31T00:39:53.213Z,1000.75
2022-12-31T00:40:02.629Z,1000.67
2022-12-31T00:40:21.467Z,1000.68
2022-12-31T00:40:30.884Z,1000.63
2022-12-31T00:40:40.281Z,1000.76
2022-12-31T00:40:49.691Z,1000.69
2022-12-31T00:40:59.095Z,1000.66
2022-12-31T00:41:08.488Z,1000.70
2022-12-31T00:41:17.892Z,1000.71
2022-12-31T00:41:27.314Z,1000.71
2022-12-31T00:41:36.722Z,1000.70
2022-12-31T00:41:46.194Z,1000.61
2022-12-31T00:41:55.697Z,1000.66
2022-12-31T00:42:05.057Z,1000.70
2022-12-31T00:42:14.456Z,1000.60
2022-12-31T00:42:23.894Z,1000.65
2022-12-31T00:42:33.278Z,1000.61
2022-12-31T00:42:42.709Z,1000.55
2022-12-31T00:43:01.550Z,1000.57
2022-12-31T00:43:11.055Z,1000.51
2022-12-31T00:43:20.345Z,1000.53
2022-12-31T00:43:29.782Z,1000.47
2022-12-31T00:43:39.183Z,1000.53
2022-12-31T00:43:48.583Z,1000.45
2022-12-31T00:43:58.008Z,1000.50
2022-12-31T00:44:07.410Z,1000.52
2022-12-31T00:44:16.817Z,1000.44
2022-12-31T00:44:26.227Z,1000.49
2022-12-31T00:44:35.649Z,1000.57
2022-12-31T00:44:45.069Z,1000.39
2022-12-31T00:44:54.471Z,1000.52
2022-12-31T00:45:03.862Z,1000.54
2022-12-31T00:45:13.264Z,1000.49
2022-12-31T00:45:22.651Z,1000.66
2022-12-31T00:45:41.460Z,1000.61
2022-12-31T00:45:50.989Z,1000.61
2022-12-31T00:46:00.377Z,1000.60
2022-12-31T00:46:09.816Z,1000.57
2022-12-31T00:46:19.208Z,1000.56
2022-12-31T00:46:28.552Z,1000.56
2022-12-31T00:47:00.241Z,1000.60
2022-12-31T00:47:09.659Z,1000.61
2022-12-31T00:47:19.072Z,1000.71
2022-12-31T00:47:28.487Z,1000.66
2022-12-31T00:47:37.876Z,1000.66
2022-12-31T00:47:47.268Z,1000.73
2022-12-31T00:47:56.668Z,1000.69
2022-12-31T00:48:06.065Z,1000.60
2022-12-31T00:48:15.485Z,1000.72
2022-12-31T00:48:25.194Z,1000.82
2022-12-31T00:48:34.623Z,1000.67
2022-12-31T00:48:44.044Z,1000.57
2022-12-31T00:48:53.464Z,1000.59
2022-12-31T00:49:02.884Z,1000.73
2022-12-31T00:49:12.306Z,1000.69
2022-12-31T00:49:21.877Z,1000.66
2022-12-31T00:49:31.142Z,1000.72
2022-12-31T00:49:40.565Z,1000.62
2022-12-31T00:49:49.996Z,1000.72
2022-12-31T00:49:59.397Z,1000.73
2022-12-31T00:50:08.824Z,1000.65
2022-12-31T00:50:18.250Z,1000.69
2022-12-31T00:50:27.671Z,1000.70
2022-12-31T00:50:37.076Z,1000.68
2022-12-31T00:50:46.501Z,1000.71
2022-12-31T00:50:55.919Z,1000.71
2022-12-31T00:51:05.327Z,1000.74
2022-12-31T00:51:14.721Z,1000.66
2022-12-31T00:51:24.133Z,1000.64
2022-12-31T00:51:33.544Z,1000.90
2022-12-31T00:51:42.999Z,1000.81
2022-12-31T00:51:52.440Z,1000.71
2022-12-31T00:52:01.851Z,1000.78
2022-12-31T00:52:11.258Z,1000.82
2022-12-31T00:52:20.655Z,1000.81
2022-12-31T00:52:30.068Z,1000.67
2022-12-31T00:52:39.492Z,1000.77
2022-12-31T00:52:48.929Z,1000.78
2022-12-31T00:52:58.337Z,1000.74
2022-12-31T00:53:07.751Z,1000.74
2022-12-31T00:53:17.169Z,1000.69
2022-12-31T00:53:26.589Z,1000.71
2022-12-31T00:53:36.043Z,1000.75
2022-12-31T00:53:45.396Z,1000.72
2022-12-31T00:53:54.785Z,1000.77
2022-12-31T00:54:04.177Z,1000.74
2022-12-31T00:54:13.592Z,1000.81
2022-12-31T00:54:23.004Z,1000.73
2022-12-31T00:54:32.425Z,1000.83
2022-12-31T00:54:41.845Z,1000.80
2022-12-31T00:54:51.250Z,1000.76
2022-12-31T00:55:00.660Z,1000.83
2022-12-31T00:55:10.063Z,1000.86
2022-12-31T00:55:19.464Z,1000.78
2022-12-31T00:55:28.876Z,1000.69
2022-12-31T00:55:38.282Z,1000.72
2022-12-31T00:55:47.715Z,1000.89
2022-12-31T00:55:57.118Z,1000.75
2022-12-31T00:56:06.534Z,1000.87
2022-12-31T00:56:15.947Z,1000.77
2022-12-31T00:56:25.398Z,1000.78
2022-12-31T00:56:34.822Z,1000.79
2022-12-31T00:56:44.225Z,1000.82
2022-12-31T00:56:53.672Z,1000.73
2022-12-31T00:57:03.064Z,1000.73
2022-12-31T00:57:12.503Z,1000.83
2022-12-31T00:57:21.923Z,1000.66
2022-12-31T00:57:31.342Z,1000.83
2022-12-31T00:57:40.746Z,1000.86
2022-12-31T00:57:50.181Z,1000.73
2022-12-31T00:57:59.605Z,1000.79
2022-12-31T00:58:09.015Z,1000.72
2022-12-31T00:58:18.475Z,1000.78
2022-12-31T00:58:27.868Z,1000.77
2022-12-31T00:58:37.327Z,1000.71
2022-12-31T00:58:46.732Z,1000.82
2022-12-31T00:58:56.160Z,1000.80
2022-12-31T00:59:05.569Z,1000.83
2022-12-31T00:59:15.007Z,1000.79
2022-12-31T00:59:24.408Z,1000.84
2022-12-31T00:59:33.828Z,1000.74
2022-12-31T00:59:43.236Z,1000.84
2022-12-31T00:59:52.651Z,1000.84
2022-12-31T01:00:02.068Z,1000.86
2022-12-31T01:00:11.487Z,1000.89
2022-12-31T01:00:20.909Z,1000.89
2022-12-31T01:00:30.340Z,1000.91
2022-12-31T01:00:49.181Z,1000.91
2022-12-31T01:00:58.642Z,1000.95
2022-12-31T01:01:08.176Z,1000.91
2022-12-31T01:01:17.587Z,1000.90
2022-12-31T01:01:27.067Z,1000.96
2022-12-31T01:01:36.525Z,1000.89
2022-12-31T01:01:45.898Z,1000.97
2022-12-31T01:01:55.254Z,1000.92
2022-12-31T01:02:04.646Z,1000.94
2022-12-31T01:02:14.216Z,1001.01
2022-12-31T01:02:23.631Z,1000.96
2022-12-31T01:02:32.983Z,1000.94
2022-12-31T01:02:42.380Z,1001.00
2022-12-31T01:02:51.786Z,1000.96
2022-12-31T01:03:01.200Z,1000.88
2022-12-31T01:03:10.618Z,1000.86
2022-12-31T01:03:29.424Z,1000.88
2022-12-31T01:03:38.809Z,1000.86
2022-12-31T01:03:48.199Z,1000.89
2022-12-31T01:03:57.598Z,1000.85
2022-12-31T01:04:07.006Z,1000.84
2022-12-31T01:04:16.416Z,1000.91
2022-12-31T01:04:25.807Z,1000.91
2022-12-31T01:04:35.230Z,1000.88
2022-12-31T01:04:44.668Z,1000.86
2022-12-31T01:04:54.080Z,1000.83
2022-12-31T01:05:03.473Z,1000.76
2022-12-31T01:05:12.897Z,1000.83
2022-12-31T01:05:22.297Z,1000.89
2022-12-31T01:05:31.722Z,1000.94
2022-12-31T01:05:41.148Z,1000.87
2022-12-31T01:05:50.605Z,1000.86
2022-12-31T01:06:09.448Z,1000.92
2022-12-31T01:06:18.937Z,1000.88
2022-12-31T01:06:28.344Z,1000.88
2022-12-31T01:06:37.751Z,1000.87
2022-12-31T01:06:47.178Z,1000.95
2022-12-31T01:06:56.636Z,1000.92
2022-12-31T01:07:06.009Z,1000.98
2022-12-31T01:07:15.416Z,1001.01
2022-12-31T01:07:24.811Z,1000.96
2022-12-31T01:07:34.224Z,1000.94
2022-12-31T01:07:43.606Z,1001.00
2022-12-31T01:07:53.357Z,1000.95
2022-12-31T01:08:02.916Z,1000.92
2022-12-31T01:08:12.232Z,1001.02
2022-12-31T01:08:21.637Z,1001.00
2022-12-31T01:08:31.061Z,1000.94
2022-12-31T01:08:40.462Z,1000.98
2022-12-31T01:08:59.366Z,1000.90
2022-12-31T01:09:08.737Z,1000.98
2022-12-31T01:09:18.136Z,1000.96
2022-12-31T01:09:27.518Z,1000.93
2022-12-31T01:09:36.890Z,1001.06
2022-12-31T01:09:46.297Z,1000.98
2022-12-31T01:09:55.756Z,1000.99
2022-12-31T01:10:05.140Z,1001.02
2022-12-31T01:10:14.556Z,1001.09
2022-12-31T01:10:23.951Z,1001.06
2022-12-31T01:10:33.356Z,1001.06
2022-12-31T01:10:42.749Z,1000.95
2022-12-31T01:10:52.151Z,1001.08
2022-12-31T01:11:01.627Z,1000.97
2022-12-31T01:11:11.022Z,1001.00
2022-12-31T01:11:20.406Z,1000.96
2022-12-31T01:11:39.203Z,1001.04
2022-12-31T01:11:48.601Z,1001.01
2022-12-31T01:11:58.022Z,1000.97
2022-12-31T01:12:07.417Z,1000.99
2022-12-31T01:12:16.826Z,1000.94
2022-12-31T01:12:26.222Z,1001.00
2022-12-31T01:12:35.616Z,1000.96
2022-12-31T01:12:45.029Z,1000.94
2022-12-31T01:12:54.474Z,1000.95
2022-12-31T01:13:03.888Z,1001.08
2022-12-31T01:13:13.320Z,1001.01
2022-12-31T01:13:22.714Z,1000.98
2022-12-31T01:13:32.095Z,1000.99
2022-12-31T01:13:41.534Z,1000.96
2022-12-31T01:13:50.900Z,1001.06
2022-12-31T01:14:00.344Z,1000.96
2022-12-31T01:14:19.151Z,1000.97
2022-12-31T01:14:28.540Z,1000.98
2022-12-31T01:14:37.961Z,1000.91
2022-12-31T01:14:47.386Z,1000.97
2022-12-31T01:14:56.800Z,1001.03
2022-12-31T01:15:06.203Z,1000.99
2022-12-31T01:15:15.607Z,1000.92
2022-12-31T01:15:25.024Z,1001.01
2022-12-31T01:15:34.444Z,1001.01
2022-12-31T01:15:43.845Z,1001.03
2022-12-31T01:15:53.275Z,1000.96
2022-12-31T01:16:02.805Z,1000.96
2022-12-31T01:16:12.219Z,1000.96
2022-12-31T01:16:21.565Z,1000.97
2022-12-31T01:16:30.950Z,1001.05
2022-12-31T01:16:40.343Z,1000.99
2022-12-31T01:17:01.220Z,1001.01
2022-12-31T01:17:10.638Z,1001.00
2022-12-31T01:17:20.121Z,1000.99
2022-12-31T01:17:29.619Z,1000.92
2022-12-31T01:17:39.049Z,1000.98
2022-12-31T01:17:48.427Z,1000.99
2022-12-31T01:17:57.838Z,1001.07
2022-12-31T01:18:07.291Z,1000.96
2022-12-31T01:18:16.687Z,1000.95
2022-12-31T01:18:26.110Z,1000.96
2022-12-31T01:18:35.576Z,1000.96
2022-12-31T01:18:44.905Z,1000.99
2022-12-31T01:18:54.312Z,1000.99
2022-12-31T01:19:03.721Z,1001.06
2022-12-31T01:19:13.094Z,1001.02
2022-12-31T01:19:22.503Z,1001.03
2022-12-31T01:19:31.897Z,1001.00
2022-12-31T01:19:41.386Z,1000.87
2022-12-31T01:19:50.795Z,1000.92
2022-12-31T01:20:09.678Z,1001.01
2022-12-31T01:20:19.112Z,1001.02
2022-12-31T01:20:28.507Z,1001.00
2022-12-31T01:20:37.902Z,1000.97
2022-12-31T01:20:47.346Z,1000.96
2022-12-31T01:20:56.712Z,1000.97
2022-12-31T01:21:06.103Z,1000.99
2022-12-31T01:21:15.478Z,1000.98
2022-12-31T01:21:24.881Z,1001.06
2022-12-31T01:21:34.299Z,1000.98
2022-12-31T01:21:43.715Z,1001.01
2022-12-31T01:21:53.166Z,1000.98
2022-12-31T01:22:02.621Z,1000.96
2022-12-31T01:22:12.006Z,1000.96
2022-12-31T01:22:21.508Z,1000.96
2022-12-31T01:22:30.892Z,1001.03
2022-12-31T01:22:40.376Z,1001.03
2022-12-31T01:22:59.236Z,1000.97
2022-12-31T01:23:08.636Z,1000.96
2022-12-31T01:23:18.048Z,1000.95
2022-12-31T01:23:27.440Z,1001.00
2022-12-31T01:23:36.850Z,1000.99
2022-12-31T01:23:46.252Z,1000.97
2022-12-31T01:23:55.656Z,1001.04
2022-12-31T01:24:05.055Z,1000.98
2022-12-31T01:24:14.450Z,1001.04
2022-12-31T01:24:23.902Z,1000.97
2022-12-31T01:24:33.335Z,1000.99
2022-12-31T01:24:42.727Z,1001.03
2022-12-31T01:24:52.179Z,1001.03
2022-12-31T01:25:01.754Z,1000.98
2022-12-31T01:25:11.146Z,1001.01
2022-12-31T01:25:20.547Z,1001.03
2022-12-31T01:25:39.340Z,1001.19
2022-12-31T01:25:48.760Z,1001.17
2022-12-31T01:25:58.185Z,1001.01
2022-12-31T01:26:07.599Z,1001.05
2022-12-31T01:26:16.981Z,1001.08
2022-12-31T01:26:26.408Z,1001.15
2022-12-31T01:26:35.788Z,1001.02
2022-12-31T01:26:45.191Z,1001.09
2022-12-31T01:26:54.601Z,1001.09
2022-12-31T01:27:04.021Z,1001.07
2022-12-31T01:27:13.413Z,1001.11
2022-12-31T01:27:22.811Z,1001.15
2022-12-31T01:27:32.220Z,1001.06
2022-12-31T01:27:41.647Z,1001.11
2022-12-31T01:27:51.046Z,1001.19
2022-12-31T01:28:00.509Z,1001.06
2022-12-31T01:28:19.306Z,1001.12
2022-12-31T01:28:28.728Z,1001.11
2022-12-31T01:28:38.132Z,1001.22
2022-12-31T01:28:47.627Z,1001.13
2022-12-31T01:28:57.006Z,1001.16
2022-12-31T01:29:06.412Z,1001.20
2022-12-31T01:29:15.840Z,1001.17
2022-12-31T01:29:25.218Z,1001.17
2022-12-31T01:29:34.618Z,1001.14
2022-12-31T01:29:44.027Z,1001.18
2022-12-31T01:29:53.510Z,1001.19
2022-12-31T01:30:02.938Z,1001.13
2022-12-31T01:30:12.320Z,1001.21
2022-12-31T01:30:21.851Z,1001.14
2022-12-31T01:30:31.290Z,1001.23
2022-12-31T01:30:40.757Z,1001.09
2022-12-31T01:30:59.640Z,1001.19
2022-12-31T01:31:09.034Z,1001.12
2022-12-31T01:31:18.403Z,1001.11
2022-12-31T01:31:27.869Z,1001.13
2022-12-31T01:31:37.177Z,1001.14
2022-12-31T01:31:46.615Z,1001.21
2022-12-31T01:31:55.978Z,1001.12
2022-12-31T01:32:05.396Z,1001.11
2022-12-31T01:32:14.788Z,1001.19
2022-12-31T01:32:24.195Z,1001.25
2022-12-31T01:32:33.591Z,1001.16
2022-12-31T01:32:42.980Z,1001.15
2022-12-31T01:32:52.407Z,1001.20
2022-12-31T01:33:01.799Z,1001.15
2022-12-31T01:33:11.219Z,1001.14
2022-12-31T01:33:20.631Z,1001.17
2022-12-31T01:33:39.456Z,1001.26
2022-12-31T01:33:48.892Z,1001.16
2022-12-31T01:33:58.302Z,1001.19
2022-12-31T01:34:07.714Z,1001.22
2022-12-31T01:34:17.121Z,1001.21
2022-12-31T01:34:26.532Z,1001.25
2022-12-31T01:34:35.944Z,1001.23
2022-12-31T01:34:45.352Z,1001.24
2022-12-31T01:34:54.753Z,1001.19
2022-12-31T01:35:04.163Z,1001.22
2022-12-31T01:35:13.548Z,1001.26
2022-12-31T01:35:22.942Z,1001.37
2022-12-31T01:35:32.356Z,1001.36
2022-12-31T01:35:41.772Z,1001.32
2022-12-31T01:35:51.192Z,1001.36
2022-12-31T01:36:00.580Z,1001.42
2022-12-31T01:36:25.231Z,1001.32
2022-12-31T01:36:28.753Z,1001.43
2022-12-31T01:36:38.173Z,1001.33
2022-12-31T01:36:47.588Z,1001.30
2022-12-31T01:36:57.006Z,1001.37
2022-12-31T01:37:06.497Z,1001.35
2022-12-31T01:37:15.915Z,1001.32
2022-12-31T01:37:25.310Z,1001.36
2022-12-31T01:37:34.737Z,1001.28
2022-12-31T01:37:44.190Z,1001.42
2022-12-31T01:37:53.593Z,1001.36
2022-12-31T01:38:02.972Z,1001.39
2022-12-31T01:38:12.353Z,1001.40
2022-12-31T01:38:21.754Z,1001.45
2022-12-31T01:38:31.184Z,1001.42
2022-12-31T01:38:40.596Z,1001.30
2022-12-31T01:38:59.408Z,1001.44
2022-12-31T01:39:08.847Z,1001.41
2022-12-31T01:39:18.247Z,1001.42
2022-12-31T01:39:27.640Z,1001.40
2022-12-31T01:39:37.024Z,1001.35
2022-12-31T01:39:46.426Z,1001.36
2022-12-31T01:39:55.836Z,1001.43
2022-12-31T01:40:05.236Z,1001.51
2022-12-31T01:40:14.649Z,1001.35
2022-12-31T01:40:24.070Z,1001.41
2022-12-31T01:40:33.491Z,1001.42
2022-12-31T01:40:42.882Z,1001.39
2022-12-31T01:40:52.351Z,1001.35
2022-12-31T01:41:01.812Z,1001.33
2022-12-31T01:41:11.191Z,1001.46
2022-12-31T01:41:20.640Z,1001.42
2022-12-31T01:41:39.455Z,1001.32
2022-12-31T01:41:48.860Z,1001.41
2022-12-31T01:41:58.286Z,1001.40
2022-12-31T01:42:07.723Z,1001.41
2022-12-31T01:42:17.128Z,1001.39
2022-12-31T01:42:26.530Z,1001.43
2022-12-31T01:42:35.954Z,1001.45
2022-12-31T01:42:45.351Z,1001.40
2022-12-31T01:42:54.756Z,1001.34
2022-12-31T01:43:04.152Z,1001.42
2022-12-31T01:43:13.551Z,1001.42
2022-12-31T01:43:22.967Z,1001.48
2022-12-31T01:43:32.417Z,1001.41
2022-12-31T01:43:41.815Z,1001.41
2022-12-31T01:43:51.251Z,1001.43
2022-12-31T01:44:00.666Z,1001.46
2022-12-31T01:44:19.468Z,1001.48
2022-12-31T01:44:28.867Z,1001.51
2022-12-31T01:44:38.262Z,1001.44
2022-12-31T01:44:47.667Z,1001.37
2022-12-31T01:44:57.075Z,1001.42
2022-12-31T01:45:06.488Z,1001.41
2022-12-31T01:45:15.879Z,1001.45
2022-12-31T01:45:25.301Z,1001.47
2022-12-31T01:45:34.682Z,1001.51
2022-12-31T01:45:44.081Z,1001.50
2022-12-31T01:45:53.588Z,1001.45
2022-12-31T01:46:03.003Z,1001.54
2022-12-31T01:46:12.396Z,1001.43
2022-12-31T01:46:21.775Z,1001.52
2022-12-31T01:46:31.207Z,1001.48
2022-12-31T01:46:40.558Z,1001.42
2022-12-31T01:46:59.372Z,1001.51
2022-12-31T01:47:09.787Z,1001.52
2022-12-31T01:47:19.181Z,1001.47
2022-12-31T01:47:28.580Z,1001.44
2022-12-31T01:47:38.000Z,1001.48
2022-12-31T01:47:47.488Z,1001.45
2022-12-31T01:47:56.892Z,1001.43
2022-12-31T01:48:06.323Z,1001.39
2022-12-31T01:48:15.770Z,1001.45
2022-12-31T01:48:25.203Z,1001.40
2022-12-31T01:48:34.615Z,1001.32
2022-12-31T01:48:44.037Z,1001.48
2022-12-31T01:48:53.470Z,1001.43
2022-12-31T01:49:02.892Z,1001.38
2022-12-31T01:49:12.300Z,1001.43
2022-12-31T01:49:21.780Z,1001.42
2022-12-31T01:49:31.181Z,1001.51
2022-12-31T01:49:40.618Z,1001.45
2022-12-31T01:49:59.407Z,1001.47
2022-12-31T01:50:08.825Z,1001.51
2022-12-31T01:50:18.249Z,1001.45
2022-12-31T01:50:27.669Z,1001.49
2022-12-31T01:50:37.096Z,1001.66
2022-12-31T01:50:46.518Z,1001.60
2022-12-31T01:50:55.935Z,1001.60
2022-12-31T01:51:05.317Z,1001.53
2022-12-31T01:51:14.734Z,1001.49
2022-12-31T01:51:24.135Z,1001.49
2022-12-31T01:51:33.535Z,1001.49
2022-12-31T01:51:42.931Z,1001.57
2022-12-31T01:51:52.356Z,1001.53
2022-12-31T01:52:01.779Z,1001.60
2022-12-31T01:52:11.213Z,1001.49
2022-12-31T01:52:20.592Z,1001.51
2022-12-31T01:52:39.408Z,1001.66
2022-12-31T01:52:48.813Z,1001.57
2022-12-31T01:52:58.304Z,1001.60
2022-12-31T01:53:07.719Z,1001.52
2022-12-31T01:53:17.138Z,1001.50
2022-12-31T01:53:26.564Z,1001.56
2022-12-31T01:53:39.359Z,1001.51
2022-12-31T01:53:45.421Z,1001.52
2022-12-31T01:53:54.825Z,1001.49
2022-12-31T01:54:04.257Z,1001.59
2022-12-31T01:54:13.665Z,1001.55
2022-12-31T01:54:23.086Z,1001.51
2022-12-31T01:54:32.491Z,1001.54
2022-12-31T01:54:41.873Z,1001.65
2022-12-31T01:54:51.312Z,1001.61
2022-12-31T01:55:00.739Z,1001.59
2022-12-31T01:55:19.572Z,1001.62
2022-12-31T01:55:28.965Z,1001.67
2022-12-31T01:55:38.387Z,1001.65
2022-12-31T01:55:47.786Z,1001.66
2022-12-31T01:55:57.190Z,1001.59
2022-12-31T01:56:06.569Z,1001.65
2022-12-31T01:56:15.965Z,1001.58
2022-12-31T01:56:25.388Z,1001.68
2022-12-31T01:56:34.781Z,1001.67
2022-12-31T01:56:44.241Z,1001.71
2022-12-31T01:56:53.661Z,1001.76
2022-12-31T01:57:03.075Z,1001.64
2022-12-31T01:57:12.492Z,1001.61
2022-12-31T01:57:21.915Z,1001.62
2022-12-31T01:57:31.349Z,1001.75
2022-12-31T01:57:40.763Z,1001.71
2022-12-31T01:57:59.566Z,1001.72
2022-12-31T01:58:08.982Z,1001.64
2022-12-31T01:58:18.352Z,1001.64
2022-12-31T01:58:27.754Z,1001.57
2022-12-31T01:58:37.167Z,1001.61
2022-12-31T01:58:46.563Z,1001.60
2022-12-31T01:58:55.987Z,1001.53
2022-12-31T01:59:05.400Z,1001.65
2022-12-31T01:59:14.785Z,1001.53
2022-12-31T01:59:24.206Z,1001.70
2022-12-31T01:59:33.630Z,1001.59
2022-12-31T01:59:43.046Z,1001.63
2022-12-31T01:59:52.466Z,1001.61
2022-12-31T02:00:01.908Z,1001.61
2022-12-31T02:00:11.382Z,1001.69
2022-12-31T02:00:20.814Z,1001.68